Time;durP1;ratioP1;P1;durP2;ratioP2;P2;SDS_P1;SDS_P2;PMS_P1;PMS_P2;Temp;Humidity;BMP_temperature;BMP_pressure;BME280_temperature;BME280_humidity;BME280_pressure;Samples;Min_cycle;Max_cycle;Signal;HPM_P1;HPM_P2
2024/01/14 00:02:10;;;;;;;0.10;0.10;;;3.60;99.90;;;;;;5086956;28;20301;-67
2024/01/14 00:04:35;;;;;;;1.75;0.85;;;3.60;99.90;;;;;;5063124;28;20133;-68
2024/01/14 00:07:01;;;;;;;0.50;0.50;;;3.60;99.90;;;;;;5061039;28;20052;-66
2024/01/14 00:09:26;;;;;;;0.10;0.10;;;3.60;99.90;;;;;;5063719;28;20055;-66
2024/01/14 00:11:52;;;;;;;0.45;0.45;;;3.70;99.90;;;;;;5061680;28;20039;-67
2024/01/14 00:14:17;;;;;;;0.10;0.10;;;3.70;99.90;;;;;;5060944;28;20120;-68
2024/01/14 00:16:43;;;;;;;0.10;0.10;;;3.80;99.90;;;;;;5067794;28;20125;-68
2024/01/14 00:19:09;;;;;;;0.85;0.85;;;3.80;99.90;;;;;;5062197;28;20076;-67
2024/01/14 00:21:35;;;;;;;0.20;0.20;;;3.70;99.90;;;;;;5066568;28;20457;-67
2024/01/14 00:24:03;;;;;;;0.13;0.13;;;3.80;99.90;;;;;;5041961;28;20037;-67
2024/01/14 00:26:29;;;;;;;1.75;0.40;;;3.80;99.90;;;;;;5065897;28;20573;-68
2024/01/14 00:28:55;;;;;;;0.10;0.10;;;3.70;99.90;;;;;;5089281;28;20044;-67
2024/01/14 00:31:21;;;;;;;0.10;0.10;;;3.80;99.90;;;;;;5065707;28;20507;-67
2024/01/14 00:33:49;;;;;;;0.10;0.10;;;3.70;99.90;;;;;;5059930;28;20032;-66
2024/01/14 00:36:15;;;;;;;0.30;0.30;;;3.80;99.90;;;;;;5065273;28;20685;-67
2024/01/14 00:38:40;;;;;;;0.10;0.10;;;3.80;99.90;;;;;;5064479;28;20037;-67
2024/01/14 00:41:06;;;;;;;0.10;0.10;;;3.70;99.90;;;;;;5060967;28;20048;-67
2024/01/14 00:43:32;;;;;;;0.10;0.10;;;3.70;99.90;;;;;;5064654;28;20139;-68
2024/01/14 00:45:57;;;;;;;1.15;1.15;;;3.70;99.90;;;;;;5076730;28;20102;-68
2024/01/14 00:48:23;;;;;;;0.20;0.20;;;3.70;99.90;;;;;;5060780;28;20044;-68
2024/01/14 00:50:48;;;;;;;0.10;0.10;;;3.80;99.90;;;;;;5068710;28;20074;-67
2024/01/14 00:53:14;;;;;;;0.60;0.30;;;3.70;99.90;;;;;;5062232;28;20364;-67
2024/01/14 00:55:39;;;;;;;0.10;0.10;;;3.70;99.90;;;;;;5067692;28;20153;-67
2024/01/14 00:58:05;;;;;;;0.10;0.10;;;3.70;99.90;;;;;;5062941;28;20399;-68
2024/01/14 01:00:31;;;;;;;0.10;0.10;;;3.70;99.90;;;;;;5084113;28;20036;-66
2024/01/14 01:02:57;;;;;;;0.00;0.00;;;3.70;99.90;;;;;;5058081;28;20033;-67
2024/01/14 01:05:22;;;;;;;0.10;0.10;;;3.80;99.90;;;;;;5062347;28;20071;-67
2024/01/14 01:07:48;;;;;;;0.15;0.15;;;3.80;99.90;;;;;;5060079;28;20820;-68
2024/01/14 01:10:14;;;;;;;8.00;0.32;;;3.80;99.90;;;;;;5049481;28;20052;-67
2024/01/14 01:12:39;;;;;;;0.10;0.10;;;3.80;99.90;;;;;;5062645;28;20051;-67
2024/01/14 01:15:05;;;;;;;0.25;0.25;;;3.80;99.90;;;;;;5061287;28;20518;-66
2024/01/14 01:17:32;;;;;;;0.10;0.10;;;3.90;99.90;;;;;;5058336;28;20043;-67
2024/01/14 01:19:59;;;;;;;0.10;0.10;;;3.90;99.90;;;;;;5042556;28;20107;-67
2024/01/14 01:22:25;;;;;;;0.10;0.10;;;3.90;99.90;;;;;;5081130;28;20059;-67
2024/01/14 01:24:50;;;;;;;0.75;0.43;;;4.00;99.90;;;;;;5064696;28;20559;-65
2024/01/14 01:27:16;;;;;;;0.15;0.15;;;4.00;99.90;;;;;;5059701;28;20041;-67
2024/01/14 01:29:42;;;;;;;0.10;0.10;;;4.10;99.90;;;;;;5063641;28;20048;-67
2024/01/14 01:32:09;;;;;;;0.10;0.10;;;4.20;99.90;;;;;;5062837;28;20045;-67
2024/01/14 01:34:37;;;;;;;0.10;0.10;;;4.20;99.90;;;;;;5048859;28;20029;-67
2024/01/14 01:37:04;;;;;;;0.10;0.10;;;4.10;99.90;;;;;;5050142;28;20434;-68
2024/01/14 01:39:30;;;;;;;0.10;0.10;;;4.10;99.90;;;;;;5057496;28;20462;-67
2024/01/14 01:41:56;;;;;;;0.10;0.10;;;4.00;99.90;;;;;;5068371;28;20045;-66
2024/01/14 01:44:22;;;;;;;0.10;0.10;;;4.10;99.90;;;;;;5050335;28;20391;-67
2024/01/14 01:46:50;;;;;;;0.20;0.20;;;4.10;99.90;;;;;;5070819;28;20089;-67
2024/01/14 01:49:16;;;;;;;0.22;0.22;;;4.00;99.90;;;;;;5064495;28;20519;-67
2024/01/14 01:51:47;;;;;;;0.10;0.10;;;4.00;99.90;;;;;;5063844;28;20045;-67
2024/01/14 01:54:13;;;;;;;0.43;0.25;;;4.00;99.90;;;;;;5058162;28;20037;-66
2024/01/14 01:56:39;;;;;;;0.10;0.10;;;4.00;99.90;;;;;;5062574;28;20032;-67
2024/01/14 01:59:06;;;;;;;2.45;0.73;;;3.90;99.90;;;;;;5062754;28;20305;-67
2024/01/14 02:01:33;;;;;;;0.10;0.10;;;3.90;99.90;;;;;;5067475;28;20052;-66
2024/01/14 02:04:00;;;;;;;1.90;0.35;;;3.90;99.90;;;;;;5064647;28;20468;-67
2024/01/14 02:06:27;;;;;;;0.30;0.30;;;3.90;99.90;;;;;;5067927;28;20066;-67
2024/01/14 02:08:53;;;;;;;0.20;0.20;;;3.90;99.90;;;;;;5063953;28;20106;-67
2024/01/14 02:11:20;;;;;;;0.20;0.20;;;3.90;99.90;;;;;;5064344;28;20083;-67
2024/01/14 02:13:45;;;;;;;0.08;0.08;;;3.90;99.90;;;;;;5067183;28;20062;-66
2024/01/14 02:16:12;;;;;;;0.10;0.10;;;4.00;99.90;;;;;;5066129;28;20387;-68
2024/01/14 02:18:37;;;;;;;0.20;0.20;;;4.10;99.90;;;;;;5063206;28;20135;-67
2024/01/14 02:21:03;;;;;;;15.52;3.50;;;4.10;99.90;;;;;;5066239;28;20128;-67
2024/01/14 02:23:31;;;;;;;0.10;0.10;;;4.10;99.90;;;;;;5069686;28;20125;-67
2024/01/14 02:25:56;;;;;;;0.10;0.10;;;4.00;99.90;;;;;;5068280;28;20044;-67
2024/01/14 02:28:22;;;;;;;0.10;0.10;;;4.00;99.90;;;;;;5061749;28;20046;-67
2024/01/14 02:30:48;;;;;;;10.25;0.63;;;3.90;99.90;;;;;;5066980;28;20408;-68
2024/01/14 02:33:14;;;;;;;0.15;0.15;;;3.90;99.90;;;;;;5062494;28;20044;-67
2024/01/14 02:35:39;;;;;;;0.90;0.90;;;3.90;99.90;;;;;;5052162;28;20368;-67
2024/01/14 02:38:06;;;;;;;0.10;0.10;;;3.80;99.90;;;;;;5063767;28;20483;-67
2024/01/14 02:40:33;;;;;;;4.47;0.68;;;3.80;99.90;;;;;;5075345;28;20089;-67
2024/01/14 02:42:58;;;;;;;0.30;0.30;;;3.80;99.90;;;;;;5066571;28;20071;-67
2024/01/14 02:45:24;;;;;;;0.10;0.10;;;3.70;99.90;;;;;;5051317;28;20075;-67
2024/01/14 02:47:49;;;;;;;0.10;0.10;;;3.70;99.90;;;;;;5061625;28;20040;-68
2024/01/14 02:50:15;;;;;;;0.52;0.52;;;3.70;99.90;;;;;;5053516;28;20032;-67
2024/01/14 02:52:40;;;;;;;0.10;0.10;;;3.60;99.90;;;;;;5058017;28;20037;-67
2024/01/14 02:55:06;;;;;;;0.28;0.25;;;3.60;99.90;;;;;;5066457;28;20453;-66
2024/01/14 02:57:33;;;;;;;0.10;0.10;;;3.60;99.90;;;;;;5065094;28;20524;-67
2024/01/14 02:59:58;;;;;;;0.10;0.10;;;3.60;99.90;;;;;;5063597;28;20047;-67
2024/01/14 03:02:24;;;;;;;0.10;0.10;;;3.60;99.90;;;;;;5067657;28;20475;-67
2024/01/14 03:04:49;;;;;;;0.10;0.10;;;3.60;99.90;;;;;;5063083;28;20041;-67
2024/01/14 03:07:15;;;;;;;0.25;0.25;;;3.60;99.90;;;;;;5066712;28;20049;-67
2024/01/14 03:09:40;;;;;;;1.50;1.40;;;3.60;99.90;;;;;;5060710;28;20077;-67
2024/01/14 03:12:06;;;;;;;0.10;0.10;;;3.70;99.90;;;;;;5064654;28;20487;-67
2024/01/14 03:14:31;;;;;;;0.10;0.10;;;3.70;99.90;;;;;;5063177;28;20036;-66
2024/01/14 03:16:59;;;;;;;0.20;0.20;;;3.70;99.90;;;;;;5065156;28;20093;-67
2024/01/14 03:19:25;;;;;;;0.10;0.10;;;3.60;99.90;;;;;;5066120;28;20048;-67
2024/01/14 03:21:51;;;;;;;0.10;0.10;;;3.60;99.90;;;;;;5063783;28;20052;-67
2024/01/14 03:24:17;;;;;;;0.10;0.10;;;3.70;99.90;;;;;;5062261;28;20037;-67
2024/01/14 03:26:42;;;;;;;1.23;0.30;;;3.60;99.90;;;;;;5064464;28;20041;-67
2024/01/14 03:29:08;;;;;;;0.20;0.20;;;3.60;99.90;;;;;;5060723;28;20067;-67
2024/01/14 03:31:33;;;;;;;14.23;0.45;;;3.60;99.90;;;;;;5060109;28;20383;-66
2024/01/14 03:33:59;;;;;;;0.05;0.05;;;3.70;99.90;;;;;;5062574;28;20174;-67
2024/01/14 03:36:24;;;;;;;0.20;0.20;;;3.70;99.90;;;;;;5063728;28;20135;-67
2024/01/14 03:38:50;;;;;;;0.10;0.10;;;3.70;99.90;;;;;;5063317;28;20068;-67
2024/01/14 03:41:15;;;;;;;1.48;0.47;;;3.70;99.90;;;;;;5069080;28;20041;-67
2024/01/14 03:43:41;;;;;;;0.65;0.32;;;3.80;99.90;;;;;;5061554;28;20037;-68
2024/01/14 03:46:08;;;;;;;0.43;0.43;;;3.90;99.90;;;;;;5049312;28;20399;-67
2024/01/14 03:48:34;;;;;;;0.08;0.08;;;4.00;99.90;;;;;;5100689;28;20048;-67
2024/01/14 03:50:59;;;;;;;0.10;0.10;;;4.00;99.90;;;;;;5061331;28;20040;-67
2024/01/14 03:53:25;;;;;;;0.10;0.10;;;3.90;99.90;;;;;;5064731;28;20405;-67
2024/01/14 03:55:50;;;;;;;0.10;0.10;;;3.90;99.90;;;;;;5067728;28;20036;-67
2024/01/14 03:58:16;;;;;;;0.20;0.20;;;3.80;99.90;;;;;;5061460;28;20036;-66
2024/01/14 04:00:41;;;;;;;0.10;0.10;;;3.80;99.90;;;;;;5050646;28;20036;-67
2024/01/14 04:03:07;;;;;;;0.20;0.20;;;3.80;99.90;;;;;;5068641;28;20043;-67
2024/01/14 04:05:32;;;;;;;3.53;1.15;;;3.70;99.90;;;;;;5066463;28;20042;-67
2024/01/14 04:07:58;;;;;;;0.10;0.10;;;3.70;99.90;;;;;;5093380;28;20123;-66
2024/01/14 04:10:24;;;;;;;0.10;0.10;;;3.70;99.90;;;;;;5067859;28;20079;-67
2024/01/14 04:12:49;;;;;;;0.10;0.10;;;3.70;99.90;;;;;;5061272;28;20068;-67
2024/01/14 04:15:15;;;;;;;0.10;0.10;;;3.60;99.90;;;;;;5061081;28;20032;-67
2024/01/14 04:17:40;;;;;;;0.10;0.10;;;3.60;99.90;;;;;;5066157;28;20082;-66
2024/01/14 04:20:07;;;;;;;0.10;0.10;;;3.60;99.90;;;;;;5065381;28;20032;-67
2024/01/14 04:22:33;;;;;;;1.58;0.75;;;3.60;99.90;;;;;;5064140;28;20495;-67
2024/01/14 04:24:58;;;;;;;0.10;0.10;;;3.50;99.90;;;;;;5064495;28;20081;-66
2024/01/14 04:27:24;;;;;;;0.10;0.10;;;3.50;99.90;;;;;;5064056;28;20426;-67
2024/01/14 04:29:49;;;;;;;0.10;0.10;;;3.60;99.90;;;;;;5065848;28;20078;-66
2024/01/14 04:32:15;;;;;;;0.17;0.17;;;3.50;99.90;;;;;;5067484;28;20044;-66
2024/01/14 04:34:40;;;;;;;0.10;0.10;;;3.50;99.90;;;;;;5064539;28;20441;-67
2024/01/14 04:37:06;;;;;;;0.50;0.50;;;3.50;99.90;;;;;;5059918;28;20452;-67
2024/01/14 04:39:31;;;;;;;3.20;0.68;;;3.50;99.90;;;;;;5065360;28;20093;-67
2024/01/14 04:41:57;;;;;;;0.55;0.55;;;3.40;99.90;;;;;;5071029;28;20483;-66
2024/01/14 04:44:23;;;;;;;0.45;0.45;;;3.40;99.90;;;;;;5084132;28;20041;-67
2024/01/14 04:46:48;;;;;;;0.10;0.10;;;3.40;99.90;;;;;;5055884;28;20051;-67
2024/01/14 04:49:14;;;;;;;0.20;0.20;;;3.50;99.90;;;;;;5063648;28;20032;-66
2024/01/14 04:51:39;;;;;;;0.10;0.10;;;3.50;99.90;;;;;;5066952;28;20090;-67
2024/01/14 04:54:07;;;;;;;0.10;0.10;;;3.50;99.90;;;;;;5066720;28;20047;-66
2024/01/14 04:56:33;;;;;;;0.10;0.10;;;3.60;99.90;;;;;;5064881;28;20536;-67
2024/01/14 04:58:58;;;;;;;0.10;0.10;;;3.50;99.90;;;;;;5064245;28;20174;-67
2024/01/14 05:01:24;;;;;;;0.10;0.10;;;3.60;99.90;;;;;;5060038;28;20075;-67
2024/01/14 05:03:49;;;;;;;0.10;0.10;;;3.60;99.90;;;;;;5048121;28;20136;-67
2024/01/14 05:06:15;;;;;;;0.08;0.08;;;3.60;99.90;;;;;;5042054;28;20125;-67
2024/01/14 05:08:43;;;;;;;0.10;0.10;;;3.60;99.90;;;;;;5063539;28;20033;-67
2024/01/14 05:11:09;;;;;;;0.10;0.10;;;3.60;99.90;;;;;;5047847;28;20099;-67
2024/01/14 05:13:35;;;;;;;0.10;0.10;;;3.60;99.90;;;;;;5066171;28;20037;-66
2024/01/14 05:16:01;;;;;;;0.10;0.10;;;3.50;99.90;;;;;;5048953;28;20115;-67
2024/01/14 05:18:26;;;;;;;0.10;0.10;;;3.60;99.90;;;;;;5067365;28;20119;-66
2024/01/14 05:20:52;;;;;;;0.10;0.10;;;3.50;99.90;;;;;;5070833;28;20052;-66
2024/01/14 05:23:18;;;;;;;0.20;0.20;;;3.60;99.90;;;;;;5061890;28;20033;-68
2024/01/14 05:25:44;;;;;;;0.10;0.10;;;3.50;99.90;;;;;;5069512;28;20044;-67
2024/01/14 05:28:09;;;;;;;0.10;0.10;;;3.40;99.90;;;;;;5064163;28;20029;-66
2024/01/14 05:30:35;;;;;;;6.07;0.63;;;3.40;99.90;;;;;;5070839;28;20047;-66
2024/01/14 05:33:01;;;;;;;0.17;0.17;;;3.40;99.90;;;;;;5067057;28;20170;-66
2024/01/14 05:35:26;;;;;;;0.15;0.15;;;3.40;99.90;;;;;;5066613;28;20451;-66
2024/01/14 05:37:52;;;;;;;0.17;0.17;;;3.30;99.90;;;;;;5062405;28;20029;-67
2024/01/14 05:40:19;;;;;;;0.10;0.10;;;3.30;99.90;;;;;;5070481;28;20156;-67
2024/01/14 05:42:45;;;;;;;0.90;0.90;;;3.20;99.90;;;;;;5070498;28;20036;-67
2024/01/14 05:45:10;;;;;;;0.10;0.10;;;3.20;99.90;;;;;;5053069;28;20043;-66
2024/01/14 05:47:36;;;;;;;0.10;0.10;;;3.10;99.90;;;;;;5066397;28;20037;-67
2024/01/14 05:50:01;;;;;;;1.75;1.13;;;3.10;99.90;;;;;;5063841;28;20433;-67
2024/01/14 05:52:27;;;;;;;0.00;0.00;;;3.10;99.90;;;;;;5073673;28;20040;-67
2024/01/14 05:54:53;;;;;;;0.10;0.10;;;3.20;99.90;;;;;;5070215;28;20041;-67
2024/01/14 05:57:18;;;;;;;0.10;0.10;;;3.20;99.90;;;;;;5049936;28;20051;-67
2024/01/14 05:59:44;;;;;;;0.20;0.20;;;3.10;99.90;;;;;;5066585;28;20063;-66
2024/01/14 06:02:09;;;;;;;0.57;0.40;;;3.20;99.90;;;;;;5067250;28;20036;-66
2024/01/14 06:04:35;;;;;;;0.90;0.30;;;3.20;99.90;;;;;;5070103;28;20036;-67
2024/01/14 06:07:01;;;;;;;0.10;0.10;;;3.20;99.90;;;;;;5066371;28;20478;-67
2024/01/14 06:09:26;;;;;;;0.10;0.10;;;3.20;99.90;;;;;;5069073;28;20048;-67
2024/01/14 06:11:52;;;;;;;0.10;0.10;;;3.20;99.90;;;;;;5090311;28;20556;-66
2024/01/14 06:14:18;;;;;;;0.20;0.20;;;3.30;99.90;;;;;;5068195;28;20033;-67
2024/01/14 06:16:44;;;;;;;0.10;0.10;;;3.30;99.90;;;;;;5063046;28;20707;-66
2024/01/14 06:19:09;;;;;;;0.10;0.10;;;3.40;99.90;;;;;;5066685;28;20049;-66
2024/01/14 06:21:41;;;;;;;3.85;0.40;;;3.40;99.90;;;;;;5066796;28;20036;-68
2024/01/14 06:24:07;;;;;;;0.10;0.10;;;3.50;99.90;;;;;;5070001;28;20127;-66
2024/01/14 06:26:33;;;;;;;0.20;0.20;;;3.50;99.90;;;;;;5068040;28;20257;-67
2024/01/14 06:28:58;;;;;;;0.40;0.40;;;3.50;99.90;;;;;;5066341;28;20156;-67
2024/01/14 06:31:24;;;;;;;0.10;0.10;;;3.50;99.90;;;;;;5074157;28;20067;-66
2024/01/14 06:33:50;;;;;;;0.10;0.10;;;3.50;99.90;;;;;;5074811;28;20047;-68
2024/01/14 06:36:18;;;;;;;0.10;0.10;;;3.60;99.90;;;;;;5098235;28;20220;-66
2024/01/14 06:38:44;;;;;;;0.10;0.10;;;3.70;99.90;;;;;;5067799;28;20189;-66
2024/01/14 06:41:19;;;;;;;0.10;0.10;;;3.70;99.90;;;;;;5068107;28;20115;-66
2024/01/14 06:43:45;;;;;;;0.43;0.43;;;3.70;99.90;;;;;;5064046;28;20059;-66
2024/01/14 06:46:11;;;;;;;0.10;0.10;;;3.70;99.90;;;;;;5067030;28;20047;-68
2024/01/14 06:48:36;;;;;;;0.10;0.10;;;3.70;99.90;;;;;;5067203;28;20040;-68
2024/01/14 06:51:02;;;;;;;0.38;0.38;;;3.70;99.90;;;;;;5048780;28;20295;-69
2024/01/14 06:53:28;;;;;;;0.10;0.10;;;3.80;99.90;;;;;;5061148;28;20044;-67
2024/01/14 06:55:54;;;;;;;0.05;0.05;;;3.80;99.90;;;;;;5065676;28;20387;-70
2024/01/14 06:58:19;;;;;;;3.70;0.80;;;3.70;99.90;;;;;;5065467;28;20521;-68
2024/01/14 07:00:45;;;;;;;0.30;0.30;;;3.80;99.90;;;;;;5075690;28;20043;-67
2024/01/14 07:03:11;;;;;;;0.20;0.20;;;3.60;99.90;;;;;;5067005;28;20041;-67
2024/01/14 07:05:36;;;;;;;0.10;0.10;;;3.60;99.90;;;;;;5069965;28;20063;-69
2024/01/14 07:08:02;;;;;;;0.10;0.10;;;3.60;99.90;;;;;;5054129;28;20040;-68
2024/01/14 07:10:28;;;;;;;0.10;0.10;;;3.50;99.90;;;;;;5077460;28;20110;-69
2024/01/14 07:12:54;;;;;;;0.35;0.35;;;3.60;99.90;;;;;;5066312;28;20132;-69
2024/01/14 07:15:19;;;;;;;0.10;0.10;;;3.60;99.90;;;;;;5071244;28;20119;-68
2024/01/14 07:17:45;;;;;;;0.10;0.10;;;3.60;99.90;;;;;;5067982;28;20040;-68
2024/01/14 07:20:11;;;;;;;0.10;0.10;;;3.50;99.90;;;;;;5067396;28;20051;-68
2024/01/14 07:22:37;;;;;;;0.10;0.10;;;3.50;99.90;;;;;;5061046;28;20044;-69
2024/01/14 07:25:03;;;;;;;0.10;0.10;;;3.60;99.90;;;;;;5067015;28;20127;-69
2024/01/14 07:27:28;;;;;;;0.10;0.10;;;3.50;99.90;;;;;;5062567;28;20468;-69
2024/01/14 07:29:54;;;;;;;0.20;0.20;;;3.60;99.90;;;;;;5097071;28;20036;-70
2024/01/14 07:32:20;;;;;;;0.10;0.10;;;3.60;99.90;;;;;;5065919;28;20071;-68
2024/01/14 07:34:45;;;;;;;0.10;0.10;;;3.50;99.90;;;;;;5066328;28;20168;-67
2024/01/14 07:37:11;;;;;;;1.55;1.45;;;3.50;99.90;;;;;;5063400;28;20044;-70
2024/01/14 07:39:36;;;;;;;0.40;0.40;;;3.50;99.90;;;;;;5067804;28;20032;-68
2024/01/14 07:42:02;;;;;;;0.22;0.22;;;3.50;99.90;;;;;;5062616;28;20059;-69
2024/01/14 07:44:27;;;;;;;0.10;0.10;;;3.50;99.90;;;;;;5066692;28;20036;-69
2024/01/14 07:46:54;;;;;;;0.15;0.15;;;3.60;99.90;;;;;;5060328;28;20541;-69
2024/01/14 07:49:19;;;;;;;0.10;0.10;;;3.60;99.90;;;;;;5063698;28;20048;-68
2024/01/14 07:51:45;;;;;;;0.00;0.00;;;3.50;99.90;;;;;;5064386;28;20037;-68
2024/01/14 07:54:12;;;;;;;0.47;0.47;;;3.50;99.90;;;;;;5065303;28;20102;-68
2024/01/14 07:56:37;;;;;;;0.20;0.20;;;3.70;99.90;;;;;;5061713;28;20076;-68
2024/01/14 07:59:03;;;;;;;1.25;0.50;;;3.60;99.90;;;;;;5061239;28;20456;-68
2024/01/14 08:01:30;;;;;;;0.10;0.10;;;3.70;99.90;;;;;;5070036;28;20048;-69
2024/01/14 08:03:55;;;;;;;0.10;0.10;;;3.70;99.90;;;;;;5062038;28;20071;-68
2024/01/14 08:06:24;;;;;;;0.00;0.00;;;3.60;99.90;;;;;;5062616;28;20632;-68
2024/01/14 08:08:50;;;;;;;0.10;0.10;;;3.70;99.90;;;;;;5061190;28;20055;-68
2024/01/14 08:11:16;;;;;;;0.47;0.15;;;3.70;99.90;;;;;;5044788;28;20048;-68
2024/01/14 08:13:42;;;;;;;0.10;0.10;;;3.80;99.90;;;;;;5066144;28;20398;-69
2024/01/14 08:16:08;;;;;;;0.10;0.10;;;3.80;99.90;;;;;;5063879;28;20041;-69
2024/01/14 08:18:33;;;;;;;0.20;0.20;;;3.80;99.90;;;;;;5064305;28;20387;-68
2024/01/14 08:21:00;;;;;;;0.10;0.10;;;3.70;99.90;;;;;;5063511;28;20040;-69
2024/01/14 08:23:26;;;;;;;0.10;0.10;;;3.80;99.90;;;;;;5065620;28;20041;-68
2024/01/14 08:25:52;;;;;;;0.10;0.10;;;3.80;99.90;;;;;;5066325;28;20579;-69
2024/01/14 08:28:18;;;;;;;0.10;0.10;;;3.70;99.90;;;;;;5060333;28;20123;-69
2024/01/14 08:30:43;;;;;;;0.10;0.10;;;3.80;99.90;;;;;;5057300;28;20399;-68
2024/01/14 08:33:09;;;;;;;0.00;0.00;;;3.70;99.90;;;;;;5062616;28;20151;-68
2024/01/14 08:35:34;;;;;;;0.20;0.20;;;3.70;99.90;;;;;;5066727;28;20072;-69
2024/01/14 08:38:00;;;;;;;0.17;0.17;;;3.90;99.90;;;;;;5056141;28;20044;-68
2024/01/14 08:40:26;;;;;;;0.30;0.30;;;3.90;99.90;;;;;;5061536;28;20498;-68
2024/01/14 08:42:51;;;;;;;0.70;0.40;;;3.80;99.90;;;;;;5054092;28;20155;-68
2024/01/14 08:45:17;;;;;;;0.22;0.22;;;3.80;99.90;;;;;;5043606;28;20041;-69
2024/01/14 08:47:43;;;;;;;0.10;0.10;;;3.90;99.90;;;;;;5067446;28;20040;-68
2024/01/14 08:50:09;;;;;;;0.70;0.70;;;3.80;99.90;;;;;;5056208;28;20094;-68
2024/01/14 08:52:37;;;;;;;0.10;0.10;;;3.80;99.90;;;;;;5063167;28;20078;-68
2024/01/14 08:55:03;;;;;;;3.03;0.20;;;3.80;99.90;;;;;;5066372;28;20042;-69
2024/01/14 08:57:29;;;;;;;0.10;0.10;;;3.80;99.90;;;;;;5061070;28;20045;-67
2024/01/14 08:59:56;;;;;;;0.52;0.43;;;3.80;99.90;;;;;;5051732;28;20123;-68
2024/01/14 09:02:22;;;;;;;0.10;0.10;;;3.80;99.90;;;;;;5064410;28;20094;-71
2024/01/14 09:04:47;;;;;;;0.38;0.38;;;3.80;99.90;;;;;;5062842;28;20036;-69
2024/01/14 09:07:13;;;;;;;0.10;0.10;;;3.80;99.90;;;;;;5058348;28;20457;-67
2024/01/14 09:09:38;;;;;;;0.10;0.10;;;3.90;99.90;;;;;;5061665;28;20435;-67
2024/01/14 09:12:04;;;;;;;0.10;0.10;;;3.80;99.90;;;;;;5088834;28;20391;-68
2024/01/14 09:14:30;;;;;;;0.10;0.10;;;3.80;99.90;;;;;;5048830;28;20080;-69
2024/01/14 09:16:55;;;;;;;0.20;0.20;;;3.80;99.90;;;;;;5064490;28;20395;-68
2024/01/14 09:19:21;;;;;;;0.10;0.10;;;3.80;99.90;;;;;;5055066;28;20040;-68
2024/01/14 09:21:46;;;;;;;0.10;0.10;;;4.00;99.90;;;;;;5062671;28;20048;-69
2024/01/14 09:24:12;;;;;;;1.65;0.30;;;3.90;99.90;;;;;;5047995;28;20032;-70
2024/01/14 09:26:37;;;;;;;0.15;0.15;;;3.90;99.90;;;;;;5066925;28;20128;-69
2024/01/14 09:29:03;;;;;;;0.10;0.10;;;3.90;99.90;;;;;;5060620;28;20036;-69
2024/01/14 09:31:28;;;;;;;0.10;0.10;;;4.00;99.90;;;;;;5067379;28;20483;-68
2024/01/14 09:33:54;;;;;;;0.25;0.15;;;3.90;99.90;;;;;;5063173;28;20043;-70
2024/01/14 09:36:19;;;;;;;0.85;0.85;;;3.90;99.90;;;;;;5085344;28;20155;-69
2024/01/14 09:38:45;;;;;;;0.20;0.20;;;3.90;99.90;;;;;;5047729;28;20041;-70
2024/01/14 09:41:44;;;;;;;0.10;0.10;;;3.80;99.90;;;;;;5059606;28;20483;-70
2024/01/14 09:44:15;;;;;;;0.10;0.10;;;3.90;99.90;;;;;;5058184;28;20048;-69
2024/01/14 09:46:42;;;;;;;2.88;2.35;;;3.90;99.90;;;;;;5068149;28;20056;-69
2024/01/14 09:49:12;;;;;;;0.32;0.32;;;3.90;99.90;;;;;;5045210;28;20111;-69
2024/01/14 09:51:39;;;;;;;1.50;0.77;;;3.80;99.90;;;;;;5053905;28;20090;-70
2024/01/14 09:54:05;;;;;;;0.30;0.30;;;3.90;99.90;;;;;;5059053;28;20044;-69
2024/01/14 09:56:32;;;;;;;2.08;1.13;;;4.00;99.90;;;;;;5061989;28;20045;-70
2024/01/14 09:59:00;;;;;;;0.85;0.82;;;3.90;99.90;;;;;;5059666;28;20442;-69
2024/01/14 10:01:31;;;;;;;1.17;0.77;;;4.00;99.90;;;;;;5048434;28;20086;-70
2024/01/14 10:04:00;;;;;;;1.17;0.65;;;3.90;99.90;;;;;;5064572;28;20101;-70
2024/01/14 10:06:27;;;;;;;0.73;0.65;;;4.00;99.90;;;;;;5067012;28;20389;-68
2024/01/14 10:08:53;;;;;;;2.00;0.85;;;4.00;99.90;;;;;;5065839;28;20094;-70
2024/01/14 10:11:19;;;;;;;0.82;0.82;;;4.00;99.90;;;;;;5064593;28;20052;-70
2024/01/14 10:13:45;;;;;;;2.85;1.65;;;4.00;99.90;;;;;;5049357;28;20047;-69
2024/01/14 10:16:14;;;;;;;1.00;0.98;;;4.00;99.90;;;;;;5065849;28;20032;-68
2024/01/14 10:18:39;;;;;;;1.20;0.88;;;4.00;99.90;;;;;;5064748;28;20032;-68
2024/01/14 10:21:05;;;;;;;0.60;0.60;;;4.20;99.90;;;;;;5066350;28;20090;-70
2024/01/14 10:23:31;;;;;;;1.35;0.95;;;4.10;99.90;;;;;;5065431;28;20375;-69
2024/01/14 10:26:02;;;;;;;4.65;1.33;;;4.20;99.90;;;;;;5068323;28;20043;-68
2024/01/14 10:28:37;;;;;;;1.23;0.98;;;4.20;99.90;;;;;;5062217;28;20480;-69
2024/01/14 10:31:05;;;;;;;0.60;0.60;;;4.10;99.90;;;;;;5065374;28;20109;-70
2024/01/14 10:33:35;;;;;;;2.00;1.65;;;4.20;99.90;;;;;;5067892;28;20044;-69
2024/01/14 10:36:05;;;;;;;2.08;1.25;;;4.20;99.90;;;;;;5064034;28;20526;-68
2024/01/14 10:38:31;;;;;;;3.38;2.10;;;4.10;99.90;;;;;;5067982;28;20116;-69
2024/01/14 10:40:57;;;;;;;0.30;0.30;;;4.20;99.90;;;;;;5049837;28;20123;-68
2024/01/14 10:43:26;;;;;;;0.70;0.70;;;4.10;99.90;;;;;;5050562;28;20108;-77
2024/01/14 10:45:52;;;;;;;2.90;0.60;;;4.20;99.90;;;;;;5062173;28;20041;-76
2024/01/14 10:48:25;;;;;;;3.33;1.27;;;4.20;99.90;;;;;;5066354;28;20123;-77
2024/01/14 10:50:54;;;;;;;0.80;0.20;;;4.20;99.90;;;;;;5072911;28;20132;-75
2024/01/14 10:53:30;;;;;;;0.80;0.80;;;4.20;99.90;;;;;;5062840;28;20560;-68
2024/01/14 10:56:03;;;;;;;0.65;0.65;;;4.10;99.90;;;;;;5067934;28;20486;-67
2024/01/14 10:58:31;;;;;;;2.00;1.35;;;4.20;99.90;;;;;;5073167;28;20033;-69
2024/01/14 11:01:02;;;;;;;1.65;0.98;;;4.20;99.90;;;;;;5068365;28;20036;-68
2024/01/14 11:03:28;;;;;;;1.58;1.10;;;4.20;99.90;;;;;;5064496;28;20588;-68
2024/01/14 11:05:54;;;;;;;0.88;0.88;;;4.20;99.90;;;;;;5064298;28;20063;-68
2024/01/14 11:08:23;;;;;;;3.10;0.90;;;4.20;99.90;;;;;;5062764;28;21642;-69
2024/01/14 11:10:51;;;;;;;0.50;0.50;;;4.20;99.90;;;;;;5062636;28;20075;-67
2024/01/14 11:13:28;;;;;;;0.65;0.65;;;4.30;99.90;;;;;;5063639;28;20072;-69
2024/01/14 11:16:16;;;;;;;0.75;0.68;;;4.30;99.90;;;;;;5090911;28;20491;-67
2024/01/14 11:18:56;;;;;;;1.52;1.15;;;4.20;99.90;;;;;;5061203;28;20040;-67
2024/01/14 11:21:39;;;;;;;1.85;1.75;;;4.30;99.90;;;;;;5061119;28;20139;-68
2024/01/14 11:24:05;;;;;;;0.73;0.73;;;4.20;99.90;;;;;;5062237;28;20053;-69
2024/01/14 11:26:31;;;;;;;0.98;0.93;;;4.20;99.90;;;;;;5079366;28;20040;-69
2024/01/14 11:29:02;;;;;;;0.65;0.65;;;4.20;99.90;;;;;;5046480;28;20522;-69
2024/01/14 11:32:05;;;;;;;0.45;0.45;;;4.20;99.90;;;;;;5062045;28;20072;-70
2024/01/14 11:34:46;;;;;;;4.75;2.42;;;4.20;99.90;;;;;;5060825;28;20048;-68
2024/01/14 11:37:30;;;;;;;5.15;1.85;;;4.20;99.90;;;;;;5065821;28;20042;-69
2024/01/14 11:40:28;;;;;;;0.43;0.43;;;4.10;99.90;;;;;;5080982;28;20128;-69
2024/01/14 11:42:56;;;;;;;0.70;0.63;;;4.20;99.90;;;;;;5065097;28;20448;-68
2024/01/14 11:45:24;;;;;;;0.65;0.65;;;4.10;99.90;;;;;;5060320;28;20052;-71
2024/01/14 11:47:51;;;;;;;1.83;1.10;;;4.20;99.90;;;;;;5062283;28;20517;-70
2024/01/14 11:50:18;;;;;;;3.30;1.63;;;4.10;99.90;;;;;;5085798;28;20044;-68
2024/01/14 11:52:49;;;;;;;0.65;0.65;;;4.10;99.90;;;;;;5097026;28;20048;-67
2024/01/14 11:55:23;;;;;;;4.75;0.73;;;4.10;99.90;;;;;;5064034;28;20303;-68
2024/01/14 11:57:49;;;;;;;0.80;0.75;;;4.10;99.90;;;;;;5058886;28;20055;-68
2024/01/14 12:00:17;;;;;;;4.22;1.20;;;4.20;99.90;;;;;;5063189;28;20383;-67
2024/01/14 12:02:43;;;;;;;3.40;1.35;;;4.30;99.90;;;;;;5066205;28;20399;-69
2024/01/14 12:05:15;;;;;;;1.48;1.23;;;4.30;99.90;;;;;;5060600;28;20036;-68
2024/01/14 12:07:42;;;;;;;1.45;1.15;;;4.30;99.90;;;;;;5058716;28;20089;-67
2024/01/14 12:10:12;;;;;;;2.67;2.47;;;4.20;99.90;;;;;;5054101;28;20139;-68
2024/01/14 12:12:40;;;;;;;2.53;1.98;;;4.30;99.90;;;;;;5053318;28;20127;-67
2024/01/14 12:15:06;;;;;;;2.38;1.17;;;4.20;99.90;;;;;;5066214;28;20059;-69
2024/01/14 12:17:34;;;;;;;1.60;1.50;;;4.30;99.90;;;;;;5065842;28;20040;-68
2024/01/14 12:20:00;;;;;;;3.47;1.23;;;4.20;99.90;;;;;;5052780;28;20048;-69
2024/01/14 12:22:26;;;;;;;0.65;0.60;;;4.30;99.90;;;;;;5058896;28;20048;-70
2024/01/14 12:24:51;;;;;;;1.00;0.95;;;4.30;99.90;;;;;;5054795;28;20033;-70
2024/01/14 12:27:17;;;;;;;1.33;1.23;;;4.30;99.90;;;;;;5058956;28;20074;-69
2024/01/14 12:29:43;;;;;;;4.95;1.98;;;4.50;99.90;;;;;;5069407;28;20035;-68
2024/01/14 12:32:10;;;;;;;0.68;0.68;;;4.40;99.90;;;;;;5056889;28;20049;-68
2024/01/14 12:34:40;;;;;;;4.05;0.60;;;4.50;99.90;;;;;;5053718;28;20032;-68
2024/01/14 12:37:06;;;;;;;4.20;1.75;;;4.40;99.90;;;;;;5058990;28;20039;-69
2024/01/14 12:39:33;;;;;;;0.80;0.80;;;4.50;99.90;;;;;;5062710;28;20028;-68
2024/01/14 12:42:00;;;;;;;1.42;1.33;;;4.50;99.90;;;;;;5059493;28;20078;-67
2024/01/14 12:44:26;;;;;;;1.08;0.73;;;4.40;99.90;;;;;;5058305;28;20533;-68
2024/01/14 12:47:04;;;;;;;2.00;0.70;;;4.40;99.90;;;;;;5055067;28;20127;-70
2024/01/14 12:49:30;;;;;;;1.48;1.35;;;4.50;99.90;;;;;;5063348;28;20043;-69
2024/01/14 12:51:59;;;;;;;3.60;0.65;;;4.40;99.90;;;;;;5065441;28;20089;-68
2024/01/14 12:54:25;;;;;;;0.82;0.50;;;4.40;99.90;;;;;;5063120;28;20484;-69
2024/01/14 12:57:17;;;;;;;2.15;2.05;;;4.40;99.90;;;;;;5055131;28;20041;-69